Airfield :
LOGIN :

Register | Disclaimer

   EN    FR    IT 

 










Legend :    VFR   Marginal VFR   IFR   Intensive IFR   Very Intensive IFR
Visi :
Ceiling :
>= 8 km
>= 3000ft
5 to 8 km
1000 to 3000 ft
1500m to 5 km
500 to 1000 ft
800 to 1500m
200 to 500 ft
< 800m
< 200 ft
Symbols :   Thunderstorms  Fog  Heavy snow  Heavy precipitations  Wind > 20 kt
SIGMETs :     Misc.  Thunderstorms  Icing  Turbulence  Mountain Waves  Volcanic Ashes







- Airport Elevation : 36 ft
- IATA code : LTQ
- Download approach charts


LFAT - Le Touquet

CURRENT METAR :
  • 190730Z AUTO VRB02KT 9999 ///CB 17/16 Q1007 TEMPO VRB15G25KT 2000 TSRAGR BKN008 BKN030CB

EXPIRED METARs :
  • 190700Z AUTO VRB02KT 8000 SCT009/// SCT014/// OVC054/// ///CB 16/16 Q1007 TEMPO VRB15G25KT 2000 TSRAGR BKN008 BKN030CB
  • 190630Z AUTO VRB07KT 1700 R13/0900U RA BR FEW011/// SCT020/// BKN052/// ///CB 17/15 Q1008 TEMPO VRB15G25KT TSRAGR BKN008 BKN030CB
  • 190600Z AUTO 13008KT 9999 TS ///CB 17/15 Q1006 TEMPO VRB15G25KT 2000 TSRAGR BKN008 BKN030CB
  • 190530Z AUTO 14007KT CAVOK 16/15 Q1006
  • 190500Z AUTO 13008KT CAVOK 16/15 Q1005

TAF TAF LFAT
Valid from the 19 at 06:00 until the 19 at 15:00 UTC


190500Z 1906/1915 VRB03KT 9999 SCT008 SCT030
TEMPO 1906/1915 VRB15G25KT 2000 TSRAGR BKN008 BKN030CB
BECMG 1911/1913 27010KT
ATIS : +33 3 21 06 62 84
No reported NOTAMs for that airfield.
1 SIGMET reported for the Paris FIR (LFFF) :
 
Frequent thunderstorms
LFFF SIGMET 8 VALID 190640/190800 LFPW
LFFF PARIS FIR/UIR FRQ TS FCST WI N5030 E00030 - N5115 E00200 - N5100 E00215 - N4945 E00145 - N5030 E00030 TOP FL370 MOV NE 30KT INTSF=



MET'MAP, your aeronautical weather chart ! - Copyright ORBIFLY December 2007 - Disclaimer

ORBIFLY MET'MAP TEAM :

Programming & Development : Alexandra Zaïnal
Concept & Development : Baudouin d'Aumeries
Co-Development & Prog : Marc-Olivier Méhu
Technical & hardware support : Manuel Goepfert

Contact : metmap@orbifly.com




SOURCES & CREDITS :

   NOAA